sensor_id;sensor_type;location;lat;lon;timestamp;temperature;humidity
4429;DHT22;2227;47.810;8.810;2023-03-01T04:47:12;2.60;99.90
4429;DHT22;2227;47.810;8.810;2023-03-01T04:49:39;2.80;99.90
4429;DHT22;2227;47.810;8.810;2023-03-01T04:52:05;2.80;99.90
4429;DHT22;2227;47.810;8.810;2023-03-01T04:54:33;2.80;99.90
4429;DHT22;2227;47.810;8.810;2023-03-01T04:57:01;2.80;99.90
4429;DHT22;2227;47.810;8.810;2023-03-01T04:59:28;2.60;99.90
4429;DHT22;2227;47.810;8.810;2023-03-01T05:01:56;2.60;99.90
4429;DHT22;2227;47.810;8.810;2023-03-01T05:04:24;2.50;99.90
4429;DHT22;2227;47.810;8.810;2023-03-01T05:06:51;2.60;99.90
4429;DHT22;2227;47.810;8.810;2023-03-01T05:09:20;2.60;99.90
4429;DHT22;2227;47.810;8.810;2023-03-01T05:11:46;2.50;99.90
4429;DHT22;2227;47.810;8.810;2023-03-01T05:14:13;2.50;99.90
4429;DHT22;2227;47.810;8.810;2023-03-01T05:16:40;2.70;99.90
4429;DHT22;2227;47.810;8.810;2023-03-01T05:19:07;2.70;99.90
4429;DHT22;2227;47.810;8.810;2023-03-01T05:21:42;2.80;99.90
4429;DHT22;2227;47.810;8.810;2023-03-01T05:24:29;3.00;99.90
4429;DHT22;2227;47.810;8.810;2023-03-01T05:26:57;2.80;99.90
4429;DHT22;2227;47.810;8.810;2023-03-01T05:29:24;2.70;99.90
4429;DHT22;2227;47.810;8.810;2023-03-01T05:31:57;2.70;99.90
4429;DHT22;2227;47.810;8.810;2023-03-01T05:34:35;2.80;99.90
4429;DHT22;2227;47.810;8.810;2023-03-01T05:37:02;2.80;99.90
4429;DHT22;2227;47.810;8.810;2023-03-01T05:39:29;2.80;99.90
4429;DHT22;2227;47.810;8.810;2023-03-01T05:41:58;2.90;99.90
4429;DHT22;2227;47.810;8.810;2023-03-01T05:44:26;2.80;99.90
4429;DHT22;2227;47.810;8.810;2023-03-01T05:46:53;2.70;99.90
4429;DHT22;2227;47.810;8.810;2023-03-01T05:49:20;2.70;99.90
4429;DHT22;2227;47.810;8.810;2023-03-01T05:51:52;2.40;99.90
4429;DHT22;2227;47.810;8.810;2023-03-01T05:54:20;2.60;99.90
4429;DHT22;2227;47.810;8.810;2023-03-01T05:56:48;2.60;99.90
4429;DHT22;2227;47.810;8.810;2023-03-01T05:59:14;2.50;99.90
4429;DHT22;2227;47.810;8.810;2023-03-01T06:01:42;2.60;99.90
4429;DHT22;2227;47.810;8.810;2023-03-01T06:04:09;2.60;99.90
4429;DHT22;2227;47.810;8.810;2023-03-01T06:06:37;2.50;99.90
4429;DHT22;2227;47.810;8.810;2023-03-01T06:09:05;2.60;99.90
4429;DHT22;2227;47.810;8.810;2023-03-01T06:11:34;2.70;99.90
4429;DHT22;2227;47.810;8.810;2023-03-01T06:14:01;2.50;99.90
4429;DHT22;2227;47.810;8.810;2023-03-01T06:16:28;2.70;99.90
4429;DHT22;2227;47.810;8.810;2023-03-01T06:18:55;2.70;99.90
4429;DHT22;2227;47.810;8.810;2023-03-01T06:21:22;2.70;99.90
4429;DHT22;2227;47.810;8.810;2023-03-01T06:23:48;2.80;99.90
4429;DHT22;2227;47.810;8.810;2023-03-01T06:26:16;2.50;99.90
4429;DHT22;2227;47.810;8.810;2023-03-01T06:28:42;2.60;99.90
4429;DHT22;2227;47.810;8.810;2023-03-01T06:31:12;2.50;99.90
4429;DHT22;2227;47.810;8.810;2023-03-01T06:33:39;2.50;99.90
4429;DHT22;2227;47.810;8.810;2023-03-01T06:36:06;2.60;99.90
4429;DHT22;2227;47.810;8.810;2023-03-01T06:38:33;2.40;99.90
4429;DHT22;2227;47.810;8.810;2023-03-01T06:41:00;2.30;99.90
4429;DHT22;2227;47.810;8.810;2023-03-01T06:43:27;2.30;99.90
4429;DHT22;2227;47.810;8.810;2023-03-01T06:45:54;2.30;99.90
4429;DHT22;2227;47.810;8.810;2023-03-01T06:48:21;2.20;99.90
4429;DHT22;2227;47.810;8.810;2023-03-01T06:50:47;2.30;99.90
4429;DHT22;2227;47.810;8.810;2023-03-01T06:53:14;2.20;99.90
4429;DHT22;2227;47.810;8.810;2023-03-01T06:55:41;2.40;99.90
4429;DHT22;2227;47.810;8.810;2023-03-01T06:58:09;2.50;99.90
4429;DHT22;2227;47.810;8.810;2023-03-01T07:00:35;2.70;99.90
4429;DHT22;2227;47.810;8.810;2023-03-01T07:03:02;2.60;99.90
4429;DHT22;2227;47.810;8.810;2023-03-01T07:05:30;2.60;99.90
4429;DHT22;2227;47.810;8.810;2023-03-01T07:07:57;2.80;99.90
4429;DHT22;2227;47.810;8.810;2023-03-01T07:10:24;2.60;99.90
4429;DHT22;2227;47.810;8.810;2023-03-01T07:12:53;2.60;99.90
4429;DHT22;2227;47.810;8.810;2023-03-01T07:15:20;2.60;99.90
4429;DHT22;2227;47.810;8.810;2023-03-01T07:17:47;2.70;99.90
4429;DHT22;2227;47.810;8.810;2023-03-01T07:20:17;2.40;99.90
4429;DHT22;2227;47.810;8.810;2023-03-01T07:22:44;2.30;99.90
4429;DHT22;2227;47.810;8.810;2023-03-01T07:25:11;2.40;99.90
4429;DHT22;2227;47.810;8.810;2023-03-01T07:27:37;2.40;99.90
4429;DHT22;2227;47.810;8.810;2023-03-01T07:30:05;2.30;99.90
4429;DHT22;2227;47.810;8.810;2023-03-01T07:32:31;2.20;99.90
4429;DHT22;2227;47.810;8.810;2023-03-01T07:34:58;2.20;99.90
4429;DHT22;2227;47.810;8.810;2023-03-01T07:37:25;2.30;99.90
4429;DHT22;2227;47.810;8.810;2023-03-01T07:39:52;2.30;99.90
4429;DHT22;2227;47.810;8.810;2023-03-01T07:42:18;2.40;99.90
4429;DHT22;2227;47.810;8.810;2023-03-01T07:44:45;2.50;99.90
4429;DHT22;2227;47.810;8.810;2023-03-01T07:47:11;2.50;99.90
4429;DHT22;2227;47.810;8.810;2023-03-01T07:49:38;2.60;99.90
4429;DHT22;2227;47.810;8.810;2023-03-01T07:52:05;2.70;99.90
4429;DHT22;2227;47.810;8.810;2023-03-01T07:54:31;2.80;99.90
4429;DHT22;2227;47.810;8.810;2023-03-01T07:56:58;2.80;99.90
4429;DHT22;2227;47.810;8.810;2023-03-01T07:59:25;2.60;99.90
4429;DHT22;2227;47.810;8.810;2023-03-01T08:01:56;2.50;99.90
4429;DHT22;2227;47.810;8.810;2023-03-01T08:04:23;2.50;99.90
4429;DHT22;2227;47.810;8.810;2023-03-01T08:06:53;2.60;99.90
4429;DHT22;2227;47.810;8.810;2023-03-01T08:09:21;2.60;99.90
4429;DHT22;2227;47.810;8.810;2023-03-01T08:11:48;2.50;99.90
4429;DHT22;2227;47.810;8.810;2023-03-01T08:14:14;2.60;99.90
4429;DHT22;2227;47.810;8.810;2023-03-01T08:16:41;2.40;99.90
4429;DHT22;2227;47.810;8.810;2023-03-01T08:19:10;2.40;99.90
4429;DHT22;2227;47.810;8.810;2023-03-01T08:21:38;2.50;99.90
4429;DHT22;2227;47.810;8.810;2023-03-01T08:24:06;2.60;99.90
4429;DHT22;2227;47.810;8.810;2023-03-01T08:26:33;2.70;99.90
4429;DHT22;2227;47.810;8.810;2023-03-01T08:29:00;2.50;99.90
4429;DHT22;2227;47.810;8.810;2023-03-01T08:31:33;2.50;99.90
4429;DHT22;2227;47.810;8.810;2023-03-01T08:34:04;2.40;99.90
4429;DHT22;2227;47.810;8.810;2023-03-01T08:36:37;2.50;99.90
4429;DHT22;2227;47.810;8.810;2023-03-01T08:39:04;2.60;99.90
4429;DHT22;2227;47.810;8.810;2023-03-01T08:41:31;2.50;99.90
4429;DHT22;2227;47.810;8.810;2023-03-01T08:43:58;2.60;99.90
4429;DHT22;2227;47.810;8.810;2023-03-01T08:46:33;2.80;99.90
4429;DHT22;2227;47.810;8.810;2023-03-01T08:49:11;2.70;99.90
4429;DHT22;2227;47.810;8.810;2023-03-01T08:51:39;3.00;99.90
4429;DHT22;2227;47.810;8.810;2023-03-01T08:54:09;3.00;99.90
4429;DHT22;2227;47.810;8.810;2023-03-01T08:56:37;3.10;99.90
4429;DHT22;2227;47.810;8.810;2023-03-01T08:59:04;3.30;99.90
4429;DHT22;2227;47.810;8.810;2023-03-01T09:01:31;3.30;99.90
4429;DHT22;2227;47.810;8.810;2023-03-01T09:03:57;3.20;99.90
4429;DHT22;2227;47.810;8.810;2023-03-01T09:06:24;3.00;99.90
4429;DHT22;2227;47.810;8.810;2023-03-01T09:08:51;2.80;99.90
4429;DHT22;2227;47.810;8.810;2023-03-01T09:11:20;2.80;99.90
4429;DHT22;2227;47.810;8.810;2023-03-01T09:13:48;2.80;99.90
4429;DHT22;2227;47.810;8.810;2023-03-01T09:16:16;2.80;99.90
4429;DHT22;2227;47.810;8.810;2023-03-01T09:18:44;3.00;99.90
4429;DHT22;2227;47.810;8.810;2023-03-01T09:21:14;3.00;99.90
4429;DHT22;2227;47.810;8.810;2023-03-01T09:23:43;3.00;99.90
4429;DHT22;2227;47.810;8.810;2023-03-01T09:26:13;3.10;99.90
4429;DHT22;2227;47.810;8.810;2023-03-01T09:28:40;3.20;99.90
4429;DHT22;2227;47.810;8.810;2023-03-01T09:31:08;3.30;99.90
4429;DHT22;2227;47.810;8.810;2023-03-01T09:33:34;3.00;99.90
4429;DHT22;2227;47.810;8.810;2023-03-01T09:36:04;2.90;99.90
4429;DHT22;2227;47.810;8.810;2023-03-01T09:38:31;2.90;99.90
4429;DHT22;2227;47.810;8.810;2023-03-01T09:40:59;3.20;99.90
4429;DHT22;2227;47.810;8.810;2023-03-01T09:43:51;3.30;99.90
4429;DHT22;2227;47.810;8.810;2023-03-01T09:46:23;3.40;99.90
4429;DHT22;2227;47.810;8.810;2023-03-01T09:49:21;3.20;99.90
4429;DHT22;2227;47.810;8.810;2023-03-01T09:51:55;3.10;99.90
4429;DHT22;2227;47.810;8.810;2023-03-01T09:54:23;3.40;99.90
4429;DHT22;2227;47.810;8.810;2023-03-01T10:10:35;2.70;99.90
4429;DHT22;2227;47.810;8.810;2023-03-01T10:15:44;3.00;99.90
4429;DHT22;2227;47.810;8.810;2023-03-01T10:18:20;2.90;99.90
4429;DHT22;2227;47.810;8.810;2023-03-01T10:21:01;3.20;99.90
4429;DHT22;2227;47.810;8.810;2023-03-01T10:23:30;3.40;99.90
4429;DHT22;2227;47.810;8.810;2023-03-01T10:29:10;3.70;99.90
4429;DHT22;2227;47.810;8.810;2023-03-01T10:34:20;3.30;99.90
4429;DHT22;2227;47.810;8.810;2023-03-01T10:36:50;3.30;99.90
4429;DHT22;2227;47.810;8.810;2023-03-01T10:39:23;3.40;99.90
4429;DHT22;2227;47.810;8.810;2023-03-01T10:41:57;3.30;99.90
4429;DHT22;2227;47.810;8.810;2023-03-01T10:50:01;3.50;99.90
4429;DHT22;2227;47.810;8.810;2023-03-01T10:52:32;3.60;99.90
4429;DHT22;2227;47.810;8.810;2023-03-01T10:57:47;3.80;99.90
4429;DHT22;2227;47.810;8.810;2023-03-01T11:02:49;3.90;99.90
4429;DHT22;2227;47.810;8.810;2023-03-01T11:05:21;4.00;99.90
4429;DHT22;2227;47.810;8.810;2023-03-01T11:07:54;3.90;99.90
4429;DHT22;2227;47.810;8.810;2023-03-01T11:12:52;3.90;99.90
4429;DHT22;2227;47.810;8.810;2023-03-01T11:15:28;3.90;99.90
4429;DHT22;2227;47.810;8.810;2023-03-01T11:17:56;4.00;99.90
4429;DHT22;2227;47.810;8.810;2023-03-01T11:20:39;4.10;99.90
4429;DHT22;2227;47.810;8.810;2023-03-01T11:23:10;4.40;99.90
4429;DHT22;2227;47.810;8.810;2023-03-01T11:25:51;4.40;99.90
4429;DHT22;2227;47.810;8.810;2023-03-01T11:28:21;4.30;99.90
4429;DHT22;2227;47.810;8.810;2023-03-01T11:30:53;4.10;99.90
4429;DHT22;2227;47.810;8.810;2023-03-01T11:33:57;4.20;99.90
4429;DHT22;2227;47.810;8.810;2023-03-01T11:36:56;4.20;99.90
4429;DHT22;2227;47.810;8.810;2023-03-01T11:39:29;4.10;99.90
4429;DHT22;2227;47.810;8.810;2023-03-01T11:42:18;4.00;99.90
4429;DHT22;2227;47.810;8.810;2023-03-01T11:44:48;4.00;99.90
4429;DHT22;2227;47.810;8.810;2023-03-01T11:47:43;4.10;99.90
4429;DHT22;2227;47.810;8.810;2023-03-01T11:50:20;4.10;99.90
4429;DHT22;2227;47.810;8.810;2023-03-01T11:56:13;4.00;99.90
4429;DHT22;2227;47.810;8.810;2023-03-01T11:58:54;3.70;99.90
4429;DHT22;2227;47.810;8.810;2023-03-01T12:04:30;3.70;99.90
4429;DHT22;2227;47.810;8.810;2023-03-01T12:10:28;3.50;99.90
4429;DHT22;2227;47.810;8.810;2023-03-01T12:13:23;3.50;99.90
4429;DHT22;2227;47.810;8.810;2023-03-01T12:21:53;3.60;99.90
4429;DHT22;2227;47.810;8.810;2023-03-01T12:24:37;3.90;99.90
4429;DHT22;2227;47.810;8.810;2023-03-01T12:33:57;4.00;99.90
4429;DHT22;2227;47.810;8.810;2023-03-01T12:36:58;3.80;99.90
4429;DHT22;2227;47.810;8.810;2023-03-01T12:42:58;3.80;99.90
4429;DHT22;2227;47.810;8.810;2023-03-01T12:48:31;4.20;99.90
4429;DHT22;2227;47.810;8.810;2023-03-01T12:51:11;4.60;99.90
4429;DHT22;2227;47.810;8.810;2023-03-01T12:53:51;4.80;99.90
4429;DHT22;2227;47.810;8.810;2023-03-01T12:56:24;4.80;99.90
4429;DHT22;2227;47.810;8.810;2023-03-01T12:58:57;4.70;99.90
4429;DHT22;2227;47.810;8.810;2023-03-01T13:01:29;4.70;99.90
4429;DHT22;2227;47.810;8.810;2023-03-01T13:11:57;4.70;99.90
4429;DHT22;2227;47.810;8.810;2023-03-01T13:16:54;5.00;99.90
4429;DHT22;2227;47.810;8.810;2023-03-01T13:19:23;4.70;99.90
4429;DHT22;2227;47.810;8.810;2023-03-01T13:21:52;4.80;99.90
4429;DHT22;2227;47.810;8.810;2023-03-01T13:24:42;4.70;99.90
4429;DHT22;2227;47.810;8.810;2023-03-01T13:27:21;4.80;99.90
4429;DHT22;2227;47.810;8.810;2023-03-01T13:29:51;4.70;99.90
4429;DHT22;2227;47.810;8.810;2023-03-01T13:32:28;4.80;99.90
4429;DHT22;2227;47.810;8.810;2023-03-01T13:37:44;5.00;99.90
4429;DHT22;2227;47.810;8.810;2023-03-01T13:42:49;5.10;99.90
4429;DHT22;2227;47.810;8.810;2023-03-01T13:45:39;4.70;99.90
4429;DHT22;2227;47.810;8.810;2023-03-01T13:48:21;4.60;99.90
4429;DHT22;2227;47.810;8.810;2023-03-01T13:50:57;4.50;99.90
4429;DHT22;2227;47.810;8.810;2023-03-01T13:53:26;4.70;99.90
4429;DHT22;2227;47.810;8.810;2023-03-01T13:55:58;4.70;99.90
4429;DHT22;2227;47.810;8.810;2023-03-01T13:58:31;4.40;99.90
4429;DHT22;2227;47.810;8.810;2023-03-01T14:01:07;4.50;99.90
4429;DHT22;2227;47.810;8.810;2023-03-01T14:03:41;4.70;99.90
4429;DHT22;2227;47.810;8.810;2023-03-01T14:06:13;4.80;99.90
4429;DHT22;2227;47.810;8.810;2023-03-01T14:08:45;4.90;99.90
4429;DHT22;2227;47.810;8.810;2023-03-01T14:11:21;4.90;99.90
4429;DHT22;2227;47.810;8.810;2023-03-01T14:16:56;4.60;99.90
4429;DHT22;2227;47.810;8.810;2023-03-01T14:19:26;4.40;99.90
4429;DHT22;2227;47.810;8.810;2023-03-01T14:22:20;4.60;99.90
4429;DHT22;2227;47.810;8.810;2023-03-01T14:24:51;4.80;99.90
4429;DHT22;2227;47.810;8.810;2023-03-01T14:27:19;4.80;99.90
4429;DHT22;2227;47.810;8.810;2023-03-01T14:30:00;4.80;99.90
4429;DHT22;2227;47.810;8.810;2023-03-01T14:32:30;4.80;99.90
4429;DHT22;2227;47.810;8.810;2023-03-01T14:34:58;4.60;99.90
4429;DHT22;2227;47.810;8.810;2023-03-01T14:37:34;4.70;99.90
4429;DHT22;2227;47.810;8.810;2023-03-01T14:40:03;4.80;99.90
4429;DHT22;2227;47.810;8.810;2023-03-01T14:42:36;4.90;99.90
4429;DHT22;2227;47.810;8.810;2023-03-01T14:45:04;4.90;99.90
4429;DHT22;2227;47.810;8.810;2023-03-01T14:47:35;4.80;99.90
4429;DHT22;2227;47.810;8.810;2023-03-01T14:50:09;4.90;99.90
4429;DHT22;2227;47.810;8.810;2023-03-01T14:52:42;4.70;99.90
4429;DHT22;2227;47.810;8.810;2023-03-01T14:55:24;4.90;99.90
4429;DHT22;2227;47.810;8.810;2023-03-01T14:57:52;4.80;99.90
4429;DHT22;2227;47.810;8.810;2023-03-01T15:00:25;5.00;99.90
4429;DHT22;2227;47.810;8.810;2023-03-01T15:02:53;5.10;99.90
4429;DHT22;2227;47.810;8.810;2023-03-01T15:05:29;5.20;99.90
4429;DHT22;2227;47.810;8.810;2023-03-01T15:08:01;5.40;99.90
4429;DHT22;2227;47.810;8.810;2023-03-01T15:10:31;5.50;99.90
4429;DHT22;2227;47.810;8.810;2023-03-01T15:13:21;5.60;99.90
4429;DHT22;2227;47.810;8.810;2023-03-01T15:15:50;5.70;99.90
4429;DHT22;2227;47.810;8.810;2023-03-01T15:18:25;5.90;99.90
4429;DHT22;2227;47.810;8.810;2023-03-01T15:20:53;6.10;99.90
4429;DHT22;2227;47.810;8.810;2023-03-01T15:23:25;6.10;99.90
4429;DHT22;2227;47.810;8.810;2023-03-01T15:25:54;6.20;99.90
4429;DHT22;2227;47.810;8.810;2023-03-01T15:28:30;6.40;99.90
4429;DHT22;2227;47.810;8.810;2023-03-01T15:31:21;6.80;99.90
4429;DHT22;2227;47.810;8.810;2023-03-01T15:33:49;6.80;99.90
4429;DHT22;2227;47.810;8.810;2023-03-01T15:39:00;6.90;99.90
4429;DHT22;2227;47.810;8.810;2023-03-01T15:41:30;6.60;99.90
4429;DHT22;2227;47.810;8.810;2023-03-01T15:43:59;6.80;99.90
4429;DHT22;2227;47.810;8.810;2023-03-01T15:46:32;7.10;99.90
4429;DHT22;2227;47.810;8.810;2023-03-01T15:49:03;7.20;99.90
4429;DHT22;2227;47.810;8.810;2023-03-01T15:51:34;7.20;99.90
4429;DHT22;2227;47.810;8.810;2023-03-01T15:54:13;7.50;99.90
4429;DHT22;2227;47.810;8.810;2023-03-01T15:56:43;7.60;99.90
4429;DHT22;2227;47.810;8.810;2023-03-01T15:59:12;7.20;99.90
4429;DHT22;2227;47.810;8.810;2023-03-01T16:01:41;7.30;99.90
4429;DHT22;2227;47.810;8.810;2023-03-01T16:04:12;7.30;99.90
4429;DHT22;2227;47.810;8.810;2023-03-01T16:06:42;7.30;99.90
4429;DHT22;2227;47.810;8.810;2023-03-01T16:09:09;6.90;99.90
4429;DHT22;2227;47.810;8.810;2023-03-01T16:11:35;6.90;99.90
4429;DHT22;2227;47.810;8.810;2023-03-01T16:14:03;6.70;99.90
4429;DHT22;2227;47.810;8.810;2023-03-01T16:16:30;6.60;99.90
4429;DHT22;2227;47.810;8.810;2023-03-01T16:18:57;6.50;99.90
4429;DHT22;2227;47.810;8.810;2023-03-01T16:21:24;5.90;99.90
4429;DHT22;2227;47.810;8.810;2023-03-01T16:23:52;5.50;99.90
4429;DHT22;2227;47.810;8.810;2023-03-01T16:26:19;5.60;99.90
4429;DHT22;2227;47.810;8.810;2023-03-01T16:28:47;5.60;99.90
4429;DHT22;2227;47.810;8.810;2023-03-01T16:31:18;5.40;99.90
4429;DHT22;2227;47.810;8.810;2023-03-01T16:33:45;5.20;99.90
4429;DHT22;2227;47.810;8.810;2023-03-01T16:36:17;5.10;99.90
4429;DHT22;2227;47.810;8.810;2023-03-01T16:38:45;5.20;99.90
4429;DHT22;2227;47.810;8.810;2023-03-01T16:41:15;5.10;99.90
4429;DHT22;2227;47.810;8.810;2023-03-01T16:43:42;5.10;99.90
4429;DHT22;2227;47.810;8.810;2023-03-01T16:46:14;5.20;99.90
4429;DHT22;2227;47.810;8.810;2023-03-01T16:48:41;5.10;99.90
4429;DHT22;2227;47.810;8.810;2023-03-01T16:51:08;4.80;99.90
4429;DHT22;2227;47.810;8.810;2023-03-01T16:53:36;4.60;99.90
4429;DHT22;2227;47.810;8.810;2023-03-01T16:56:04;4.50;99.90
4429;DHT22;2227;47.810;8.810;2023-03-01T16:58:32;4.60;99.90
4429;DHT22;2227;47.810;8.810;2023-03-01T17:01:05;4.50;99.90
4429;DHT22;2227;47.810;8.810;2023-03-01T17:03:32;4.50;99.90
4429;DHT22;2227;47.810;8.810;2023-03-01T17:06:03;4.30;99.90
4429;DHT22;2227;47.810;8.810;2023-03-01T17:08:31;4.20;99.90
4429;DHT22;2227;47.810;8.810;2023-03-01T17:11:10;4.20;99.90
4429;DHT22;2227;47.810;8.810;2023-03-01T17:13:37;4.40;99.90
4429;DHT22;2227;47.810;8.810;2023-03-01T17:16:09;4.40;99.90
4429;DHT22;2227;47.810;8.810;2023-03-01T17:18:37;4.60;99.90
4429;DHT22;2227;47.810;8.810;2023-03-01T17:21:05;4.60;99.90
4429;DHT22;2227;47.810;8.810;2023-03-01T17:23:34;4.60;99.90
4429;DHT22;2227;47.810;8.810;2023-03-01T17:26:01;4.60;99.90
4429;DHT22;2227;47.810;8.810;2023-03-01T17:28:29;4.70;99.90
4429;DHT22;2227;47.810;8.810;2023-03-01T17:30:59;4.70;99.90
4429;DHT22;2227;47.810;8.810;2023-03-01T17:33:26;4.80;99.90
4429;DHT22;2227;47.810;8.810;2023-03-01T17:35:52;4.90;99.90
4429;DHT22;2227;47.810;8.810;2023-03-01T17:38:19;5.00;99.90
4429;DHT22;2227;47.810;8.810;2023-03-01T17:40:46;5.10;99.90
4429;DHT22;2227;47.810;8.810;2023-03-01T17:43:15;4.90;99.90
4429;DHT22;2227;47.810;8.810;2023-03-01T17:45:42;4.90;99.90
4429;DHT22;2227;47.810;8.810;2023-03-01T17:48:13;4.80;99.90
4429;DHT22;2227;47.810;8.810;2023-03-01T17:50:40;4.70;99.90
4429;DHT22;2227;47.810;8.810;2023-03-01T17:53:08;4.90;99.90
4429;DHT22;2227;47.810;8.810;2023-03-01T17:55:36;4.80;99.90
4429;DHT22;2227;47.810;8.810;2023-03-01T17:58:04;5.00;99.90
4429;DHT22;2227;47.810;8.810;2023-03-01T18:00:32;5.10;99.90
4429;DHT22;2227;47.810;8.810;2023-03-01T18:02:59;5.10;99.90
4429;DHT22;2227;47.810;8.810;2023-03-01T18:05:26;5.10;99.90
4429;DHT22;2227;47.810;8.810;2023-03-01T18:07:53;5.10;99.90
4429;DHT22;2227;47.810;8.810;2023-03-01T18:10:20;5.00;99.90
4429;DHT22;2227;47.810;8.810;2023-03-01T18:12:46;4.90;99.90
4429;DHT22;2227;47.810;8.810;2023-03-01T18:15:13;5.00;99.90
4429;DHT22;2227;47.810;8.810;2023-03-01T18:17:40;4.90;99.90
4429;DHT22;2227;47.810;8.810;2023-03-01T18:20:07;4.80;99.90
4429;DHT22;2227;47.810;8.810;2023-03-01T18:22:34;4.80;99.90
4429;DHT22;2227;47.810;8.810;2023-03-01T18:25:01;4.80;99.90
4429;DHT22;2227;47.810;8.810;2023-03-01T18:27:28;4.80;99.90
4429;DHT22;2227;47.810;8.810;2023-03-01T18:29:54;4.80;99.90
4429;DHT22;2227;47.810;8.810;2023-03-01T18:32:22;4.80;99.90
4429;DHT22;2227;47.810;8.810;2023-03-01T18:34:49;4.80;99.90
4429;DHT22;2227;47.810;8.810;2023-03-01T18:37:15;4.80;99.90
4429;DHT22;2227;47.810;8.810;2023-03-01T18:39:43;4.50;99.90
4429;DHT22;2227;47.810;8.810;2023-03-01T18:42:10;4.50;99.90
4429;DHT22;2227;47.810;8.810;2023-03-01T18:44:36;4.50;99.90
4429;DHT22;2227;47.810;8.810;2023-03-01T18:47:04;4.50;99.90
4429;DHT22;2227;47.810;8.810;2023-03-01T18:49:30;4.60;99.90
4429;DHT22;2227;47.810;8.810;2023-03-01T18:51:57;4.60;99.90
4429;DHT22;2227;47.810;8.810;2023-03-01T18:54:24;4.70;99.90
4429;DHT22;2227;47.810;8.810;2023-03-01T18:56:50;4.60;99.90
4429;DHT22;2227;47.810;8.810;2023-03-01T18:59:17;4.60;99.90
4429;DHT22;2227;47.810;8.810;2023-03-01T19:01:44;4.70;99.90
4429;DHT22;2227;47.810;8.810;2023-03-01T19:04:11;4.80;99.90
4429;DHT22;2227;47.810;8.810;2023-03-01T19:06:38;4.70;99.90
4429;DHT22;2227;47.810;8.810;2023-03-01T19:09:06;4.80;99.90
4429;DHT22;2227;47.810;8.810;2023-03-01T19:11:36;4.90;99.90
4429;DHT22;2227;47.810;8.810;2023-03-01T19:14:03;5.00;99.90
4429;DHT22;2227;47.810;8.810;2023-03-01T19:16:31;4.90;99.90
4429;DHT22;2227;47.810;8.810;2023-03-01T19:19:01;5.00;99.90
4429;DHT22;2227;47.810;8.810;2023-03-01T19:21:30;4.90;99.90
4429;DHT22;2227;47.810;8.810;2023-03-01T19:23:58;4.90;99.90
4429;DHT22;2227;47.810;8.810;2023-03-01T19:26:26;4.80;99.90
4429;DHT22;2227;47.810;8.810;2023-03-01T19:28:54;4.70;99.90
4429;DHT22;2227;47.810;8.810;2023-03-01T19:31:23;4.40;99.90
4429;DHT22;2227;47.810;8.810;2023-03-01T19:33:52;4.20;99.90
4429;DHT22;2227;47.810;8.810;2023-03-01T19:36:30;4.20;99.90
4429;DHT22;2227;47.810;8.810;2023-03-01T19:39:02;4.20;99.90
4429;DHT22;2227;47.810;8.810;2023-03-01T19:41:29;4.40;99.90
4429;DHT22;2227;47.810;8.810;2023-03-01T19:43:56;4.50;99.90
4429;DHT22;2227;47.810;8.810;2023-03-01T19:46:24;4.60;99.90
4429;DHT22;2227;47.810;8.810;2023-03-01T19:48:53;4.60;99.90
4429;DHT22;2227;47.810;8.810;2023-03-01T19:51:20;4.70;99.90
4429;DHT22;2227;47.810;8.810;2023-03-01T19:53:47;4.80;99.90
4429;DHT22;2227;47.810;8.810;2023-03-01T19:56:14;4.90;99.90
4429;DHT22;2227;47.810;8.810;2023-03-01T19:58:40;4.60;99.90
4429;DHT22;2227;47.810;8.810;2023-03-01T20:01:15;4.50;99.90
4429;DHT22;2227;47.810;8.810;2023-03-01T20:03:42;4.60;99.90
4429;DHT22;2227;47.810;8.810;2023-03-01T20:06:13;4.50;99.90
4429;DHT22;2227;47.810;8.810;2023-03-01T20:08:40;4.40;99.90
4429;DHT22;2227;47.810;8.810;2023-03-01T20:11:08;4.40;99.90
4429;DHT22;2227;47.810;8.810;2023-03-01T20:13:36;4.40;99.90
4429;DHT22;2227;47.810;8.810;2023-03-01T20:16:04;4.50;99.90
4429;DHT22;2227;47.810;8.810;2023-03-01T20:18:31;4.50;99.90
4429;DHT22;2227;47.810;8.810;2023-03-01T20:20:58;4.60;99.90
4429;DHT22;2227;47.810;8.810;2023-03-01T20:23:25;4.50;99.90
4429;DHT22;2227;47.810;8.810;2023-03-01T20:26:01;4.20;99.90
4429;DHT22;2227;47.810;8.810;2023-03-01T20:28:29;4.40;99.90
4429;DHT22;2227;47.810;8.810;2023-03-01T20:31:02;4.50;99.90
4429;DHT22;2227;47.810;8.810;2023-03-01T20:33:29;4.70;99.90
4429;DHT22;2227;47.810;8.810;2023-03-01T20:35:55;4.80;99.90
4429;DHT22;2227;47.810;8.810;2023-03-01T20:38:22;4.90;99.90
4429;DHT22;2227;47.810;8.810;2023-03-01T20:40:49;4.90;99.90
4429;DHT22;2227;47.810;8.810;2023-03-01T20:43:15;4.70;99.90
4429;DHT22;2227;47.810;8.810;2023-03-01T20:45:42;4.80;99.90
4429;DHT22;2227;47.810;8.810;2023-03-01T20:48:09;4.90;99.90
4429;DHT22;2227;47.810;8.810;2023-03-01T20:50:39;4.90;99.90
4429;DHT22;2227;47.810;8.810;2023-03-01T20:53:06;5.00;99.90
4429;DHT22;2227;47.810;8.810;2023-03-01T20:55:33;5.10;99.90
4429;DHT22;2227;47.810;8.810;2023-03-01T20:58:00;5.00;99.90
4429;DHT22;2227;47.810;8.810;2023-03-01T21:00:27;5.00;99.90
4429;DHT22;2227;47.810;8.810;2023-03-01T21:02:54;4.70;99.90
4429;DHT22;2227;47.810;8.810;2023-03-01T21:05:22;4.50;99.90
4429;DHT22;2227;47.810;8.810;2023-03-01T21:07:49;4.50;99.90
4429;DHT22;2227;47.810;8.810;2023-03-01T21:10:16;4.60;99.90
4429;DHT22;2227;47.810;8.810;2023-03-01T21:12:43;4.60;99.90
4429;DHT22;2227;47.810;8.810;2023-03-01T21:15:10;4.60;99.90
4429;DHT22;2227;47.810;8.810;2023-03-01T21:17:45;4.60;99.90
4429;DHT22;2227;47.810;8.810;2023-03-01T21:20:13;4.70;99.90
4429;DHT22;2227;47.810;8.810;2023-03-01T21:22:40;4.60;99.90
4429;DHT22;2227;47.810;8.810;2023-03-01T21:25:07;4.80;99.90
4429;DHT22;2227;47.810;8.810;2023-03-01T21:27:37;4.80;99.90
4429;DHT22;2227;47.810;8.810;2023-03-01T21:30:04;4.80;99.90
4429;DHT22;2227;47.810;8.810;2023-03-01T21:32:31;4.80;99.90
4429;DHT22;2227;47.810;8.810;2023-03-01T21:34:58;4.80;99.90
4429;DHT22;2227;47.810;8.810;2023-03-01T21:37:25;4.80;99.90
4429;DHT22;2227;47.810;8.810;2023-03-01T21:39:54;4.70;99.90
4429;DHT22;2227;47.810;8.810;2023-03-01T21:42:22;4.70;99.90
4429;DHT22;2227;47.810;8.810;2023-03-01T21:44:49;4.80;99.90
4429;DHT22;2227;47.810;8.810;2023-03-01T21:47:15;4.80;99.90
4429;DHT22;2227;47.810;8.810;2023-03-01T21:49:42;4.80;99.90
4429;DHT22;2227;47.810;8.810;2023-03-01T21:52:08;4.80;99.90
4429;DHT22;2227;47.810;8.810;2023-03-01T21:54:42;4.80;99.90
4429;DHT22;2227;47.810;8.810;2023-03-01T21:57:10;4.70;99.90
4429;DHT22;2227;47.810;8.810;2023-03-01T21:59:37;4.70;99.90
4429;DHT22;2227;47.810;8.810;2023-03-01T22:02:04;4.70;99.90
4429;DHT22;2227;47.810;8.810;2023-03-01T22:04:31;4.70;99.90
4429;DHT22;2227;47.810;8.810;2023-03-01T22:06:57;4.70;99.90
4429;DHT22;2227;47.810;8.810;2023-03-01T22:09:24;4.70;99.90
4429;DHT22;2227;47.810;8.810;2023-03-01T22:11:53;4.70;99.90
4429;DHT22;2227;47.810;8.810;2023-03-01T22:14:23;4.60;99.90
4429;DHT22;2227;47.810;8.810;2023-03-01T22:16:51;4.70;99.90
4429;DHT22;2227;47.810;8.810;2023-03-01T22:19:19;4.60;99.90
4429;DHT22;2227;47.810;8.810;2023-03-01T22:21:48;4.60;99.90
4429;DHT22;2227;47.810;8.810;2023-03-01T22:24:24;4.70;99.90
4429;DHT22;2227;47.810;8.810;2023-03-01T22:26:52;4.70;99.90
4429;DHT22;2227;47.810;8.810;2023-03-01T22:29:22;4.80;99.90
4429;DHT22;2227;47.810;8.810;2023-03-01T22:31:50;4.80;99.90
4429;DHT22;2227;47.810;8.810;2023-03-01T22:34:17;4.90;99.90
4429;DHT22;2227;47.810;8.810;2023-03-01T22:36:44;4.90;99.90
4429;DHT22;2227;47.810;8.810;2023-03-01T22:39:13;4.40;99.90
4429;DHT22;2227;47.810;8.810;2023-03-01T22:41:42;4.50;99.90
4429;DHT22;2227;47.810;8.810;2023-03-01T22:44:16;4.60;99.90
4429;DHT22;2227;47.810;8.810;2023-03-01T22:46:43;4.70;99.90